Time;durP1;ratioP1;P1;durP2;ratioP2;P2;SDS_P1;SDS_P2;PMS_P1;PMS_P2;Temp;Humidity;BMP_temperature;BMP_pressure;BME280_temperature;BME280_humidity;BME280_pressure;Samples;Min_cycle;Max_cycle;Signal;HPM_P1;HPM_P2
2022/12/07 00:01:43;;;;;;;16.63;7.20;;;0.10;99.90;;;;;;5053271;28;20496;-61
2022/12/07 00:04:11;;;;;;;;;;;0.10;99.90;;;;;;5064387;28;20053;-61
2022/12/07 00:06:45;;;;;;;21.00;6.82;;;0.10;99.90;;;;;;5066215;28;19928;-61
2022/12/07 00:09:15;;;;;;;18.08;7.13;;;0.10;99.90;;;;;;5059731;28;20047;-62
2022/12/07 00:11:44;;;;;;;18.98;7.85;;;0.10;99.90;;;;;;5050122;28;20045;-59
2022/12/07 00:14:13;;;;;;;15.90;7.35;;;0.00;99.90;;;;;;5044463;28;20053;-63
2022/12/07 00:16:42;;;;;;;13.13;6.80;;;0.00;99.90;;;;;;5059386;28;20416;-61
2022/12/07 00:19:11;;;;;;;17.77;7.30;;;0.00;99.90;;;;;;5063761;28;20052;-60
2022/12/07 00:21:39;;;;;;;12.73;6.90;;;0.00;99.90;;;;;;5068857;28;20044;-61
2022/12/07 00:24:08;;;;;;;17.05;7.60;;;0.00;99.90;;;;;;5062586;28;20048;-60
2022/12/07 00:26:39;;;;;;;14.90;6.63;;;0.00;99.90;;;;;;5067873;28;20046;-60
2022/12/07 00:29:12;;;;;;;16.13;7.72;;;0.00;99.90;;;;;;5070104;28;20045;-61
2022/12/07 00:31:43;;;;;;;15.25;8.45;;;0.00;99.90;;;;;;5058037;28;20049;-61
2022/12/07 00:34:17;;;;;;;24.10;8.30;;;0.00;99.90;;;;;;5057413;28;20045;-60
2022/12/07 00:36:44;;;;;;;23.08;9.25;;;0.10;99.90;;;;;;5052954;28;20041;-59
2022/12/07 00:39:12;;;;;;;15.57;8.25;;;0.10;99.90;;;;;;5045713;28;20056;-60
2022/12/07 00:41:40;;;;;;;24.40;9.50;;;0.00;99.90;;;;;;5051525;28;20052;-60
2022/12/07 00:44:08;;;;;;;18.60;7.78;;;0.00;99.90;;;;;;5061206;28;20041;-59
2022/12/07 00:46:36;;;;;;;20.55;7.80;;;0.00;99.90;;;;;;5050012;28;20056;-59
2022/12/07 00:49:04;;;;;;;23.98;8.35;;;0.00;99.90;;;;;;5062283;28;20049;-58
2022/12/07 00:51:31;;;;;;;17.80;7.30;;;0.00;99.90;;;;;;5056839;28;20055;-59
2022/12/07 00:53:59;;;;;;;19.27;7.57;;;0.00;99.90;;;;;;5058626;28;20051;-60
2022/12/07 00:56:30;;;;;;;16.15;7.85;;;-0.10;99.90;;;;;;5051071;28;20052;-59
2022/12/07 00:59:01;;;;;;;18.42;8.32;;;0.00;99.90;;;;;;5061508;28;20045;-59
2022/12/07 01:01:32;;;;;;;15.73;8.25;;;0.00;99.90;;;;;;5065083;28;20053;-58
2022/12/07 01:04:03;;;;;;;21.67;8.20;;;0.00;99.90;;;;;;5054520;28;20055;-59
2022/12/07 01:06:31;;;;;;;16.55;7.57;;;-0.10;99.90;;;;;;5056861;28;20436;-59
2022/12/07 01:08:59;;;;;;;20.17;8.10;;;0.00;99.90;;;;;;5066569;28;20412;-59
2022/12/07 01:11:29;;;;;;;21.92;8.18;;;-0.20;99.90;;;;;;5053590;28;20056;-60
2022/12/07 01:13:58;;;;;;;;;;;-0.10;99.90;;;;;;5057264;28;20040;-60
2022/12/07 01:16:28;;;;;;;22.88;9.00;;;-0.10;99.90;;;;;;5049462;28;19928;-59
2022/12/07 01:18:57;;;;;;;18.35;7.85;;;-0.20;99.90;;;;;;5051006;28;20064;-59
2022/12/07 01:21:27;;;;;;;19.25;8.35;;;-0.20;99.90;;;;;;5056484;28;20610;-59
2022/12/07 01:23:57;;;;;;;18.50;8.98;;;-0.20;99.90;;;;;;5067851;28;20041;-59
2022/12/07 01:26:25;;;;;;;39.20;9.68;;;-0.20;99.90;;;;;;5063132;28;20051;-59
2022/12/07 01:28:58;;;;;;;19.92;8.95;;;-0.20;99.90;;;;;;5068800;28;20053;-59
2022/12/07 01:31:27;;;;;;;18.50;9.20;;;-0.30;99.90;;;;;;5065218;28;20049;-59
2022/12/07 01:33:57;;;;;;;17.60;9.38;;;-0.30;99.90;;;;;;5051141;28;20045;-58
2022/12/07 01:36:35;;;;;;;22.17;10.45;;;-0.30;99.90;;;;;;5066503;28;20055;-60
2022/12/07 01:39:06;;;;;;;25.65;10.18;;;-0.30;99.90;;;;;;5068535;28;20055;-58
2022/12/07 01:41:36;;;;;;;28.58;9.27;;;-0.40;99.90;;;;;;5067540;28;20055;-60
2022/12/07 01:44:21;;;;;;;18.38;8.25;;;-0.40;99.90;;;;;;5061927;28;20483;-59
2022/12/07 01:46:51;;;;;;;19.88;9.05;;;-0.40;99.90;;;;;;5054573;28;20428;-59
2022/12/07 01:49:30;;;;;;;16.60;7.97;;;-0.40;99.90;;;;;;5052349;28;20056;-60
2022/12/07 01:52:10;;;;;;;23.70;8.20;;;-0.40;99.90;;;;;;5048431;28;20408;-59
2022/12/07 01:54:39;;;;;;;16.63;7.60;;;-0.50;99.90;;;;;;5066718;28;20609;-59
2022/12/07 01:57:07;;;;;;;17.35;8.18;;;-0.50;99.90;;;;;;5048314;28;20057;-59
2022/12/07 01:59:36;;;;;;;19.70;8.43;;;-0.50;99.90;;;;;;5062898;28;20044;-58
2022/12/07 02:02:10;;;;;;;15.30;7.50;;;-0.50;99.90;;;;;;5059871;28;20045;-60
2022/12/07 02:04:37;;;;;;;21.38;7.63;;;0.00;99.90;;;;;;5052072;28;20048;-60
2022/12/07 02:07:11;;;;;;;22.40;8.07;;;-0.60;99.90;;;;;;5062093;28;20041;-59
2022/12/07 02:09:39;;;;;;;26.40;8.35;;;-0.50;99.90;;;;;;5064817;28;20041;-58
2022/12/07 02:12:10;;;;;;;22.23;8.18;;;-0.60;99.90;;;;;;5048522;28;20527;-61
2022/12/07 02:14:42;;;;;;;16.80;8.00;;;-0.60;99.90;;;;;;5047165;28;20044;-58
2022/12/07 02:17:32;;;;;;;20.25;8.43;;;-0.60;99.90;;;;;;5054822;28;20059;-60
2022/12/07 02:20:16;;;;;;;16.70;7.95;;;-0.60;99.90;;;;;;5060211;28;20051;-58
2022/12/07 02:23:35;;;;;;;22.20;8.63;;;-0.70;99.90;;;;;;5049681;28;20045;-61
2022/12/07 02:26:24;;;;;;;22.48;8.18;;;-0.70;99.90;;;;;;5056290;28;20520;-62
2022/12/07 02:29:17;;;;;;;;;;;-0.80;99.90;;;;;;5059190;28;20063;-59
2022/12/07 02:32:17;;;;;;;25.02;9.05;;;-0.80;99.90;;;;;;5046846;28;20319;-62
2022/12/07 02:35:17;;;;;;;21.05;8.10;;;-0.70;99.90;;;;;;5065460;28;20056;-58
2022/12/07 02:38:11;;;;;;;19.48;8.00;;;-0.80;99.90;;;;;;5070393;28;20041;-59
2022/12/07 02:41:00;;;;;;;19.17;9.50;;;-0.80;99.90;;;;;;5069225;28;20044;-59
2022/12/07 02:43:38;;;;;;;24.17;9.70;;;-0.80;99.90;;;;;;5067057;28;20051;-60
2022/12/07 02:46:14;;;;;;;28.20;8.82;;;-0.80;99.90;;;;;;5054726;28;20037;-61
2022/12/07 02:48:43;;;;;;;31.83;9.77;;;-0.80;99.90;;;;;;5052752;28;20037;-62
2022/12/07 02:51:14;;;;;;;19.60;9.32;;;-0.80;99.90;;;;;;5056338;28;20391;-63
2022/12/07 02:53:43;;;;;;;21.08;8.85;;;-0.80;99.90;;;;;;5055878;28;20052;-62
2022/12/07 02:56:35;;;;;;;28.20;9.63;;;-0.70;99.90;;;;;;5060461;28;20044;-63
2022/12/07 02:59:08;;;;;;;27.98;9.55;;;-0.70;99.90;;;;;;5054908;28;20049;-61
2022/12/07 03:01:58;;;;;;;20.95;9.40;;;-0.70;99.90;;;;;;5060532;28;20049;-64
2022/12/07 03:04:29;;;;;;;;;;;-0.70;99.90;;;;;;5050856;28;20048;-58
2022/12/07 03:07:09;;;;;;;20.52;8.85;;;-0.70;99.90;;;;;;5065564;28;19921;-61
2022/12/07 03:09:45;;;;;;;16.35;8.30;;;-0.70;99.90;;;;;;5061439;28;20040;-62
2022/12/07 03:12:20;;;;;;;19.58;7.78;;;-0.70;99.90;;;;;;5066864;28;20060;-62
2022/12/07 03:14:56;;;;;;;18.45;9.40;;;-0.80;99.90;;;;;;5059026;28;20053;-62
2022/12/07 03:17:31;;;;;;;18.52;8.10;;;-0.80;99.90;;;;;;5049782;28;20045;-61
2022/12/07 03:20:03;;;;;;;19.45;8.65;;;-0.80;99.90;;;;;;5050974;28;20041;-60
2022/12/07 03:22:35;;;;;;;23.75;10.23;;;-0.80;99.90;;;;;;5061049;28;20503;-61
2022/12/07 03:25:13;;;;;;;22.92;8.88;;;-0.80;99.90;;;;;;5050657;28;21129;-62
2022/12/07 03:27:55;;;;;;;26.40;10.13;;;-0.90;99.90;;;;;;5050661;28;20440;-61
2022/12/07 03:30:34;;;;;;;23.10;9.77;;;-0.90;99.90;;;;;;5050723;28;20053;-60
2022/12/07 03:33:22;;;;;;;26.27;9.70;;;-0.90;99.90;;;;;;5065963;28;20041;-59
2022/12/07 03:36:25;;;;;;;28.05;11.02;;;-0.90;99.90;;;;;;5057893;28;20500;-61
2022/12/07 03:39:06;;;;;;;20.17;9.27;;;-0.90;99.90;;;;;;5067563;28;20625;-61
2022/12/07 03:41:36;;;;;;;22.83;10.25;;;-1.00;99.90;;;;;;5074366;28;20053;-61
2022/12/07 03:44:13;;;;;;;30.42;12.02;;;-1.00;99.90;;;;;;5059952;28;20049;-63
2022/12/07 03:47:12;;;;;;;28.33;11.98;;;-1.00;99.90;;;;;;5074306;28;20541;-62
2022/12/07 03:49:45;;;;;;;31.10;12.00;;;-1.00;99.90;;;;;;5068450;28;20045;-60
2022/12/07 03:52:25;;;;;;;25.48;11.75;;;-1.00;99.90;;;;;;5066042;28;20041;-62
2022/12/07 03:55:17;;;;;;;25.42;10.52;;;-1.00;99.90;;;;;;5053410;28;20060;-62
2022/12/07 03:57:49;;;;;;;28.27;10.90;;;-1.00;99.90;;;;;;5067685;28;20387;-61
2022/12/07 04:00:18;;;;;;;22.25;10.75;;;-1.00;99.90;;;;;;5072822;28;20055;-62
2022/12/07 04:02:56;;;;;;;28.88;12.27;;;-1.00;99.90;;;;;;5073518;28;20070;-62
2022/12/07 04:05:24;;;;;;;24.65;11.98;;;-1.00;99.90;;;;;;5054800;28;20045;-60
2022/12/07 04:07:52;;;;;;;25.83;11.93;;;-1.00;99.90;;;;;;5073103;28;20048;-61
2022/12/07 04:10:20;;;;;;;32.80;12.77;;;-1.00;99.90;;;;;;5073934;28;20053;-62
2022/12/07 04:12:47;;;;;;;24.67;11.73;;;-1.00;99.90;;;;;;5071302;28;20040;-62
2022/12/07 04:15:17;;;;;;;27.52;11.45;;;-1.00;99.90;;;;;;5061388;28;20041;-62
2022/12/07 04:17:45;;;;;;;27.73;11.55;;;-1.10;99.90;;;;;;5071386;28;20048;-63
2022/12/07 04:20:13;;;;;;;26.45;11.13;;;-1.10;99.90;;;;;;5073435;28;20491;-62
2022/12/07 04:22:41;;;;;;;28.00;12.30;;;-1.10;99.90;;;;;;5073657;28;20059;-62
2022/12/07 04:25:09;;;;;;;27.05;12.85;;;-1.10;99.90;;;;;;5073770;28;20476;-61
2022/12/07 04:27:39;;;;;;;40.22;12.52;;;-1.10;99.90;;;;;;5056220;28;20049;-63
2022/12/07 04:30:07;;;;;;;35.67;11.45;;;-1.10;99.90;;;;;;5053548;28;20052;-61
2022/12/07 04:32:38;;;;;;;24.45;11.88;;;-1.10;99.90;;;;;;5053531;28;20053;-61
2022/12/07 04:35:06;;;;;;;25.13;11.23;;;-0.20;99.90;;;;;;5052677;28;20424;-62
2022/12/07 04:37:34;;;;;;;31.77;11.50;;;-1.10;99.90;;;;;;5070884;28;20044;-61
2022/12/07 04:40:02;;;;;;;24.15;11.63;;;-1.20;99.90;;;;;;5073503;28;20063;-62
2022/12/07 04:42:30;;;;;;;26.52;11.20;;;-1.10;99.90;;;;;;5072421;28;20387;-62
2022/12/07 04:44:58;;;;;;;23.95;10.13;;;-1.10;99.90;;;;;;5066859;28;20041;-61
2022/12/07 04:47:25;;;;;;;22.55;10.10;;;-1.20;99.90;;;;;;5052780;28;20045;-62
2022/12/07 04:49:54;;;;;;;23.77;10.90;;;-1.20;99.90;;;;;;5060714;28;20045;-62
2022/12/07 04:52:21;;;;;;;21.55;10.63;;;-1.20;99.90;;;;;;5053206;28;20036;-61
2022/12/07 04:54:49;;;;;;;25.67;11.15;;;-1.20;99.90;;;;;;5073111;28;20052;-59
2022/12/07 04:57:17;;;;;;;28.00;10.70;;;-1.20;99.90;;;;;;5073197;28;20040;-62
2022/12/07 04:59:45;;;;;;;18.63;9.90;;;-1.20;99.90;;;;;;5068752;28;20045;-59
2022/12/07 05:02:12;;;;;;;24.80;9.63;;;-1.20;99.90;;;;;;5053575;28;20041;-59
2022/12/07 05:05:00;;;;;;;22.52;10.02;;;-1.30;99.90;;;;;;5051110;28;20492;-59
2022/12/07 05:07:28;;;;;;;20.20;9.65;;;-1.30;99.90;;;;;;5058463;28;20056;-58
2022/12/07 05:09:56;;;;;;;25.08;9.07;;;-1.30;99.90;;;;;;5052503;28;20049;-59
2022/12/07 05:12:24;;;;;;;18.30;8.73;;;-1.30;99.90;;;;;;5052605;28;20056;-59
2022/12/07 05:14:51;;;;;;;21.48;9.35;;;-1.30;99.90;;;;;;5051877;28;20048;-60
2022/12/07 05:17:19;;;;;;;19.90;8.60;;;-1.30;99.90;;;;;;5057255;28;20040;-60
2022/12/07 05:19:46;;;;;;;19.77;7.97;;;-1.30;99.90;;;;;;5072485;28;20044;-61
2022/12/07 05:22:15;;;;;;;17.05;7.22;;;-1.40;99.90;;;;;;5066425;28;20045;-60
2022/12/07 05:24:42;;;;;;;18.02;7.28;;;-1.30;99.90;;;;;;5052319;28;20037;-62
2022/12/07 05:27:12;;;;;;;13.65;6.50;;;-1.40;99.90;;;;;;5052280;28;20052;-61
2022/12/07 05:29:40;;;;;;;19.42;7.70;;;-1.30;99.90;;;;;;5058014;28;20041;-59
2022/12/07 05:32:17;;;;;;;20.13;9.38;;;-1.30;99.90;;;;;;5064673;28;20036;-60
2022/12/07 05:34:45;;;;;;;17.77;9.23;;;-1.40;99.90;;;;;;5052268;28;20041;-59
2022/12/07 05:37:12;;;;;;;24.52;8.35;;;-1.30;99.90;;;;;;5066563;28;20056;-61
2022/12/07 05:39:42;;;;;;;25.20;8.43;;;-1.30;99.90;;;;;;5071138;28;20554;-59
2022/12/07 05:42:13;;;;;;;;;;;-1.40;99.90;;;;;;5072484;28;20061;-59
2022/12/07 05:44:42;;;;;;;13.68;6.72;;;-1.40;99.90;;;;;;5072241;28;19921;-59
2022/12/07 05:47:18;;;;;;;22.70;8.27;;;-1.40;99.90;;;;;;5062749;28;20044;-60
2022/12/07 05:49:45;;;;;;;18.77;7.95;;;-1.40;99.90;;;;;;5048490;28;20056;-57
2022/12/07 05:52:13;;;;;;;21.92;7.72;;;-1.30;99.90;;;;;;5048765;28;20045;-59
2022/12/07 05:54:41;;;;;;;21.60;8.07;;;-1.30;99.90;;;;;;5054493;28;20136;-61
2022/12/07 05:57:13;;;;;;;20.87;9.03;;;-1.40;99.90;;;;;;5068686;28;20056;-61
2022/12/07 05:59:41;;;;;;;18.27;9.20;;;-1.40;99.90;;;;;;5068430;28;20055;-61
2022/12/07 06:02:14;;;;;;;15.77;8.70;;;-1.30;99.90;;;;;;5059121;28;20063;-60
2022/12/07 06:04:54;;;;;;;18.40;10.02;;;-1.40;99.90;;;;;;5046592;28;20049;-59
2022/12/07 06:07:23;;;;;;;23.38;10.70;;;-1.40;99.90;;;;;;5054040;28;20044;-58
2022/12/07 06:09:52;;;;;;;29.52;12.40;;;-1.40;99.90;;;;;;5062591;28;20503;-58
2022/12/07 06:12:34;;;;;;;30.30;11.38;;;-1.40;99.90;;;;;;5061157;28;20049;-58
2022/12/07 06:15:06;;;;;;;23.05;10.25;;;-1.40;99.90;;;;;;5065399;28;20049;-58
2022/12/07 06:17:34;;;;;;;25.50;12.80;;;-1.40;99.90;;;;;;5064669;28;20053;-58
2022/12/07 06:20:03;;;;;;;36.70;12.25;;;-1.40;99.90;;;;;;5054358;28;20294;-60
2022/12/07 06:22:37;;;;;;;32.88;12.65;;;-1.40;99.90;;;;;;5066375;28;20067;-61
2022/12/07 06:25:06;;;;;;;27.85;12.75;;;-1.40;99.90;;;;;;5060531;28;20053;-61
2022/12/07 06:27:35;;;;;;;36.05;13.40;;;-1.40;99.90;;;;;;5058860;28;20052;-61
2022/12/07 06:30:06;;;;;;;30.23;12.68;;;-1.40;99.90;;;;;;5055928;28;20511;-61
2022/12/07 06:32:36;;;;;;;32.00;12.93;;;-1.40;99.90;;;;;;5067272;28;20055;-60
2022/12/07 06:35:04;;;;;;;;;;;-1.40;99.90;;;;;;5067377;28;20044;-61
2022/12/07 06:37:40;;;;;;;26.77;12.38;;;-1.40;99.90;;;;;;5065316;28;19927;-61
2022/12/07 06:40:09;;;;;;;29.80;13.85;;;-1.40;99.90;;;;;;5066838;28;20052;-61
2022/12/07 06:42:36;;;;;;;29.58;12.75;;;-1.40;99.90;;;;;;5064059;28;20055;-59
2022/12/07 06:45:05;;;;;;;30.67;11.77;;;-1.40;99.90;;;;;;5064499;28;20511;-61
2022/12/07 06:47:34;;;;;;;32.88;11.70;;;-1.50;99.90;;;;;;5055757;28;20049;-59
2022/12/07 06:50:16;;;;;;;30.70;13.15;;;-1.50;99.90;;;;;;5043987;28;20767;-60
2022/12/07 06:52:44;;;;;;;30.77;12.48;;;-1.50;99.90;;;;;;5049709;28;20389;-62
2022/12/07 06:55:12;;;;;;;31.05;12.88;;;-1.60;99.90;;;;;;5064896;28;20606;-59
2022/12/07 06:57:40;;;;;;;33.17;12.88;;;-1.60;99.90;;;;;;5067309;28;20044;-61
2022/12/07 07:00:08;;;;;;;29.23;13.30;;;-1.70;99.90;;;;;;5064494;28;20506;-60
2022/12/07 07:02:36;;;;;;;31.95;13.60;;;-1.60;99.90;;;;;;5060732;28;20048;-60
2022/12/07 07:05:04;;;;;;;33.10;14.05;;;-1.70;99.90;;;;;;5055150;28;20044;-59
2022/12/07 07:07:32;;;;;;;26.65;13.60;;;-1.70;99.90;;;;;;5067125;28;20471;-59
2022/12/07 07:10:18;;;;;;;30.88;12.45;;;-1.70;99.90;;;;;;5063635;28;20048;-60
2022/12/07 07:12:46;;;;;;;32.58;14.02;;;-1.20;99.90;;;;;;5059292;28;20399;-60
2022/12/07 07:15:14;;;;;;;32.78;15.20;;;-1.70;99.90;;;;;;5070005;28;20052;-60
2022/12/07 07:17:42;;;;;;;27.10;13.63;;;-1.70;99.90;;;;;;5071053;28;20048;-60
2022/12/07 07:20:10;;;;;;;30.92;13.43;;;-1.70;99.90;;;;;;5069795;28;20052;-60
2022/12/07 07:22:38;;;;;;;29.02;14.45;;;-1.70;99.90;;;;;;5071022;28;20060;-60
2022/12/07 07:25:06;;;;;;;34.10;15.23;;;-1.70;99.90;;;;;;5065459;28;20049;-60
2022/12/07 07:27:33;;;;;;;28.25;14.00;;;-1.70;99.90;;;;;;5064208;28;20060;-60
2022/12/07 07:30:01;;;;;;;31.83;14.25;;;-0.90;99.90;;;;;;5052117;28;20045;-60
2022/12/07 07:32:29;;;;;;;37.90;14.90;;;-1.70;99.90;;;;;;5070018;28;20068;-60
2022/12/07 07:34:57;;;;;;;31.38;14.38;;;-1.70;99.90;;;;;;5071227;28;20052;-59
2022/12/07 07:37:25;;;;;;;35.35;14.07;;;-1.70;99.90;;;;;;5065261;28;20051;-62
2022/12/07 07:39:53;;;;;;;31.55;14.38;;;-1.70;99.90;;;;;;5065668;28;20053;-59
2022/12/07 07:42:21;;;;;;;32.20;13.13;;;-1.70;99.90;;;;;;5060503;28;20048;-60
2022/12/07 07:44:49;;;;;;;28.63;13.63;;;-1.80;99.90;;;;;;5061928;28;20047;-58
2022/12/07 07:47:17;;;;;;;34.08;14.50;;;-1.70;99.90;;;;;;5065146;28;20049;-60
2022/12/07 07:49:44;;;;;;;27.13;14.45;;;-1.70;99.90;;;;;;5059735;28;20041;-58
2022/12/07 07:52:15;;;;;;;26.92;14.20;;;-1.80;99.90;;;;;;5055129;28;20044;-58
2022/12/07 07:54:44;;;;;;;;;;;-1.70;99.90;;;;;;5060049;28;20041;-58
2022/12/07 07:57:16;;;;;;;27.88;13.23;;;-1.80;99.90;;;;;;5051314;28;19920;-59
2022/12/07 07:59:44;;;;;;;25.83;12.63;;;-1.80;99.90;;;;;;5059839;28;20052;-59
2022/12/07 08:02:17;;;;;;;32.05;13.35;;;-1.80;99.90;;;;;;5041577;28;20045;-59
2022/12/07 08:04:46;;;;;;;27.67;13.63;;;-1.80;99.90;;;;;;5053471;28;20045;-59
2022/12/07 08:07:16;;;;;;;28.42;12.82;;;-1.80;99.90;;;;;;5048614;28;20045;-60
2022/12/07 08:09:43;;;;;;;34.40;14.13;;;-1.80;99.90;;;;;;5055994;28;20045;-59
2022/12/07 08:12:14;;;;;;;37.38;15.02;;;-1.90;99.90;;;;;;5048904;28;20511;-59
2022/12/07 08:14:42;;;;;;;32.40;14.35;;;-1.90;99.90;;;;;;5059157;28;20049;-59
2022/12/07 08:17:10;;;;;;;32.28;13.18;;;-1.80;99.90;;;;;;5050045;28;20053;-59
2022/12/07 08:19:37;;;;;;;30.98;13.70;;;-1.90;99.90;;;;;;5060159;28;20045;-60
2022/12/07 08:22:05;;;;;;;33.20;13.48;;;-1.80;99.90;;;;;;5060600;28;20051;-59
2022/12/07 08:24:34;;;;;;;37.35;15.38;;;-1.80;99.90;;;;;;5068978;28;20048;-60
2022/12/07 08:27:02;;;;;;;31.98;13.05;;;-1.80;99.90;;;;;;5060413;28;20049;-58
2022/12/07 08:29:31;;;;;;;26.80;12.13;;;-1.80;99.90;;;;;;5048094;28;20052;-59
2022/12/07 08:32:01;;;;;;;40.85;14.93;;;-1.80;99.90;;;;;;5059007;28;20044;-59
2022/12/07 08:34:38;;;;;;;30.70;13.25;;;-1.70;99.90;;;;;;5068753;28;20047;-59
2022/12/07 08:37:09;;;;;;;32.30;15.27;;;-1.70;99.90;;;;;;5068865;28;20048;-59
2022/12/07 08:39:36;;;;;;;32.33;14.10;;;-1.70;99.90;;;;;;5069268;28;20041;-60
2022/12/07 08:42:04;;;;;;;37.80;15.25;;;-1.60;99.90;;;;;;5069748;28;20049;-59
2022/12/07 08:44:32;;;;;;;36.97;14.52;;;-1.60;99.90;;;;;;5059196;28;20416;-59
2022/12/07 08:47:05;;;;;;;38.33;15.43;;;-1.50;99.90;;;;;;5054787;28;20045;-59
2022/12/07 08:49:41;;;;;;;30.17;13.77;;;-1.50;99.90;;;;;;5055147;28;20056;-60
2022/12/07 08:52:09;;;;;;;35.72;14.75;;;-1.50;99.90;;;;;;5069654;28;20500;-59
2022/12/07 08:54:39;;;;;;;38.88;16.30;;;-1.40;99.90;;;;;;5069697;28;20040;-59
2022/12/07 08:57:09;;;;;;;43.92;15.52;;;-1.40;99.90;;;;;;5069669;28;20369;-59
2022/12/07 08:59:37;;;;;;;32.00;14.90;;;-1.40;99.90;;;;;;5062588;28;20056;-60
2022/12/07 09:02:05;;;;;;;30.95;14.55;;;-1.30;99.90;;;;;;5052364;28;20419;-61
2022/12/07 09:04:36;;;;;;;38.22;17.80;;;-1.30;99.90;;;;;;5068315;28;20087;-60
2022/12/07 09:07:05;;;;;;;37.20;17.30;;;-1.30;99.90;;;;;;5065494;28;20503;-58
2022/12/07 09:09:34;;;;;;;32.90;15.25;;;-1.20;99.90;;;;;;5067455;28;20049;-59
2022/12/07 09:12:01;;;;;;;33.40;14.70;;;-1.10;99.90;;;;;;5068276;28;20045;-59
2022/12/07 09:14:30;;;;;;;36.90;16.20;;;-1.10;99.90;;;;;;5069145;28;20404;-60
2022/12/07 09:17:12;;;;;;;38.05;15.77;;;-1.00;99.90;;;;;;5060772;28;20049;-59
2022/12/07 09:19:51;;;;;;;34.30;15.00;;;-0.90;99.90;;;;;;5060915;28;20049;-59
2022/12/07 09:22:19;;;;;;;31.05;14.65;;;-0.90;99.90;;;;;;5068702;28;20067;-58
2022/12/07 09:24:49;;;;;;;37.20;14.80;;;-0.90;99.90;;;;;;5069117;28;20045;-59
2022/12/07 09:27:18;;;;;;;28.63;11.00;;;-0.80;99.90;;;;;;5068987;28;20052;-59
2022/12/07 09:29:45;;;;;;;23.17;10.97;;;-0.90;99.90;;;;;;5067819;28;20055;-62
2022/12/07 09:32:13;;;;;;;24.15;10.82;;;-0.80;99.90;;;;;;5063171;28;20051;-60
2022/12/07 09:34:41;;;;;;;22.05;10.85;;;-0.80;99.90;;;;;;5069077;28;20037;-60
2022/12/07 09:37:10;;;;;;;23.77;11.65;;;-0.80;99.90;;;;;;5065604;28;20040;-61
2022/12/07 09:39:41;;;;;;;27.38;12.73;;;-0.80;99.90;;;;;;5069333;28;20048;-59
2022/12/07 09:42:35;;;;;;;25.85;11.70;;;-0.80;99.90;;;;;;5067459;28;20053;-61
2022/12/07 09:45:12;;;;;;;;;;;-0.80;99.90;;;;;;5049091;28;20049;-60
2022/12/07 09:47:39;;;;;;;29.05;11.95;;;-0.80;99.90;;;;;;5049069;28;19935;-61
2022/12/07 09:50:21;;;;;;;24.25;11.82;;;-0.80;99.90;;;;;;5049522;28;20047;-61
2022/12/07 09:52:49;;;;;;;30.33;12.23;;;-0.80;99.90;;;;;;5054403;28;20051;-61
2022/12/07 09:55:28;;;;;;;30.25;13.43;;;-0.80;99.90;;;;;;5068600;28;20096;-62
2022/12/07 09:57:58;;;;;;;25.10;11.75;;;-0.70;99.90;;;;;;5067239;28;20036;-59
2022/12/07 10:00:28;;;;;;;28.90;13.52;;;-0.60;99.90;;;;;;5068608;28;20055;-61
2022/12/07 10:03:00;;;;;;;26.88;13.20;;;-0.50;99.90;;;;;;5065419;28;20384;-59
2022/12/07 10:05:48;;;;;;;25.88;12.82;;;-0.50;99.90;;;;;;5068239;28;20053;-59
2022/12/07 10:08:18;;;;;;;37.50;13.38;;;-0.40;99.90;;;;;;5066092;28;20055;-59
2022/12/07 10:10:51;;;;;;;25.55;10.93;;;-0.30;99.90;;;;;;5062616;28;20040;-59
2022/12/07 10:13:22;;;;;;;27.50;12.90;;;-0.20;99.90;;;;;;5059162;28;20075;-58
2022/12/07 10:15:53;;;;;;;115.65;17.95;;;0.00;99.90;;;;;;5068599;28;20049;-59
2022/12/07 10:18:28;;;;;;;24.38;10.40;;;0.10;99.90;;;;;;5060272;28;20045;-59
2022/12/07 10:21:02;;;;;;;21.60;9.35;;;0.10;99.90;;;;;;5047998;28;20041;-58
2022/12/07 10:23:30;;;;;;;17.38;6.50;;;0.20;99.90;;;;;;5060726;28;20644;-58
2022/12/07 10:25:58;;;;;;;13.75;7.38;;;0.20;99.90;;;;;;5067838;28;20056;-58
2022/12/07 10:28:35;;;;;;;14.73;7.05;;;0.30;99.90;;;;;;5056502;28;20049;-59
2022/12/07 10:31:21;;;;;;;18.05;7.45;;;0.40;99.90;;;;;;5048445;28;20427;-59
2022/12/07 10:33:52;;;;;;;18.83;8.75;;;0.40;99.90;;;;;;5062102;28;20048;-59
2022/12/07 10:36:22;;;;;;;;;;;0.50;99.90;;;;;;5068912;28;20064;-57
2022/12/07 10:39:18;;;;;;;16.83;6.35;;;0.60;99.90;;;;;;5057957;28;19924;-58
2022/12/07 10:41:59;;;;;;;16.80;6.78;;;0.70;99.90;;;;;;5062961;28;20041;-59
2022/12/07 10:44:30;;;;;;;15.55;7.00;;;0.70;99.90;;;;;;5063629;28;20063;-61
2022/12/07 10:47:27;;;;;;;23.48;8.07;;;0.80;99.90;;;;;;5068315;28;20498;-60
2022/12/07 10:50:28;;;;;;;13.20;6.90;;;1.00;99.90;;;;;;5047837;28;20056;-62
2022/12/07 10:53:08;;;;;;;20.70;6.53;;;1.10;99.90;;;;;;5060049;28;20676;-62
2022/12/07 10:55:56;;;;;;;15.38;5.18;;;1.30;99.90;;;;;;5067898;28;20045;-58
2022/12/07 10:58:47;;;;;;;18.05;4.47;;;1.30;99.90;;;;;;5061800;28;20057;-64
2022/12/07 11:01:18;;;;;;;7.40;3.42;;;1.50;99.90;;;;;;5066091;28;20068;-60
2022/12/07 11:03:54;;;;;;;6.50;3.40;;;1.50;99.90;;;;;;5058911;28;20056;-59
2022/12/07 11:06:31;;;;;;;5.22;2.97;;;1.60;99.90;;;;;;5055467;28;20056;-61
2022/12/07 11:09:23;;;;;;;11.00;3.83;;;1.80;99.90;;;;;;5063791;28;20033;-63
2022/12/07 11:12:45;;;;;;;6.72;3.58;;;1.90;99.90;;;;;;5067824;28;20036;-63
2022/12/07 11:15:31;;;;;;;20.17;6.13;;;2.10;99.90;;;;;;5047903;28;20049;-62
2022/12/07 11:18:11;;;;;;;17.55;6.25;;;2.50;99.90;;;;;;5053540;28;20044;-63
2022/12/07 11:20:56;;;;;;;14.00;6.18;;;2.50;99.90;;;;;;5061422;28;20044;-60
2022/12/07 11:23:57;;;;;;;11.98;3.78;;;2.70;99.90;;;;;;5057764;28;20048;-59
2022/12/07 11:26:40;;;;;;;6.32;3.50;;;3.00;99.90;;;;;;5053872;28;20048;-63
2022/12/07 11:29:29;;;;;;;8.25;2.72;;;3.10;99.90;;;;;;5065931;28;20047;-61
2022/12/07 11:32:14;;;;;;;10.43;3.57;;;3.40;99.90;;;;;;5047828;28;20052;-61
2022/12/07 11:34:59;;;;;;;10.45;3.08;;;3.50;99.90;;;;;;5061043;28;20297;-64
2022/12/07 11:37:33;;;;;;;8.25;3.33;;;3.70;99.90;;;;;;5063840;28;20067;-61
2022/12/07 11:40:25;;;;;;;5.27;2.80;;;4.20;99.90;;;;;;5067796;28;20049;-60
2022/12/07 11:43:06;;;;;;;8.23;3.65;;;3.60;99.90;;;;;;5065224;28;20357;-61
2022/12/07 11:45:37;;;;;;;17.73;4.07;;;3.80;99.90;;;;;;5066399;28;20049;-59
2022/12/07 11:48:11;;;;;;;10.98;3.97;;;4.10;99.90;;;;;;5053613;28;20041;-63
2022/12/07 11:50:57;;;;;;;16.02;7.13;;;4.50;99.90;;;;;;5067098;28;20487;-60
2022/12/07 11:53:33;;;;;;;10.45;4.60;;;4.50;99.90;;;;;;5066132;28;20057;-62
2022/12/07 11:56:07;;;;;;;11.02;3.80;;;4.80;99.90;;;;;;5071106;28;20075;-63
2022/12/07 11:59:04;;;;;;;8.77;4.13;;;5.10;99.90;;;;;;5069530;28;20483;-62
2022/12/07 12:01:37;;;;;;;11.55;4.70;;;5.40;99.90;;;;;;5069666;28;20056;-62
2022/12/07 12:04:11;;;;;;;9.85;4.15;;;5.70;99.90;;;;;;5062463;28;20056;-63
2022/12/07 12:06:40;;;;;;;11.05;4.88;;;5.90;99.90;;;;;;5060844;28;20047;-59
2022/12/07 12:09:20;;;;;;;10.48;4.20;;;6.10;99.90;;;;;;5068944;28;20051;-60
2022/12/07 12:12:10;;;;;;;15.23;4.28;;;6.30;99.90;;;;;;5069283;28;20036;-60
2022/12/07 12:15:21;;;;;;;8.25;3.78;;;6.50;99.90;;;;;;5068928;28;20041;-59
2022/12/07 12:17:52;;;;;;;11.63;4.50;;;6.70;99.90;;;;;;5069216;28;20040;-63
2022/12/07 12:20:25;;;;;;;9.63;4.07;;;6.80;99.90;;;;;;5053897;28;20057;-61
2022/12/07 12:23:05;;;;;;;8.30;4.00;;;6.90;99.90;;;;;;5057181;28;20037;-60
2022/12/07 12:25:56;;;;;;;7.22;2.83;;;7.00;99.90;;;;;;5069145;28;20040;-62
2022/12/07 12:28:32;;;;;;;6.78;2.70;;;7.20;99.90;;;;;;5066566;28;20049;-63
2022/12/07 12:31:16;;;;;;;4.90;2.25;;;7.40;99.90;;;;;;5065045;28;20044;-58
2022/12/07 12:33:50;;;;;;;6.35;1.73;;;7.60;99.90;;;;;;5061966;28;20504;-57
2022/12/07 12:36:20;;;;;;;4.18;1.60;;;7.80;99.90;;;;;;5064027;28;20041;-57
2022/12/07 12:38:50;;;;;;;9.93;2.05;;;8.00;99.90;;;;;;5069810;28;20049;-57
2022/12/07 12:41:39;;;;;;;9.80;2.00;;;8.10;99.90;;;;;;5070216;28;20056;-59
2022/12/07 12:44:15;;;;;;;6.20;2.25;;;8.10;99.90;;;;;;5069544;28;20297;-59
2022/12/07 12:46:49;;;;;;;7.07;2.97;;;8.30;99.90;;;;;;5063624;28;20483;-59
2022/12/07 12:49:20;;;;;;;4.60;2.40;;;8.50;99.90;;;;;;5064000;28;20048;-59
2022/12/07 12:51:50;;;;;;;15.20;2.47;;;8.80;99.90;;;;;;5050337;28;20400;-58
2022/12/07 12:54:18;;;;;;;5.97;2.20;;;9.00;99.90;;;;;;5067704;28;20515;-60
2022/12/07 12:57:05;;;;;;;6.65;2.25;;;9.30;99.90;;;;;;5067033;28;20071;-57
2022/12/07 12:59:37;;;;;;;7.88;1.67;;;9.40;99.90;;;;;;5051880;28;20044;-58
2022/12/07 13:02:37;;;;;;;9.65;1.85;;;9.40;99.90;;;;;;5069607;28;20052;-57
2022/12/07 13:05:09;;;;;;;8.20;3.10;;;9.50;99.90;;;;;;5057195;28;20080;-58
2022/12/07 13:07:52;;;;;;;6.47;2.35;;;9.50;99.90;;;;;;5066695;28;20036;-58
2022/12/07 13:10:23;;;;;;;5.72;1.60;;;9.50;99.90;;;;;;5066040;28;20040;-58
2022/12/07 13:13:13;;;;;;;3.80;1.70;;;9.50;99.90;;;;;;5069022;28;20041;-58